createdAt,value
2022-09-24T00:00:12.428Z,2.4
2022-09-24T00:01:21.296Z,2.4
2022-09-24T00:02:29.487Z,2.4
2022-09-24T00:03:37.890Z,2.4
2022-09-24T00:04:46.575Z,2.7
2022-09-24T00:05:54.970Z,2.7
2022-09-24T00:07:03.398Z,2.7
2022-09-24T00:08:11.973Z,2.8
2022-09-24T00:09:20.409Z,2.8
2022-09-24T00:10:28.789Z,2.8
2022-09-24T00:11:37.401Z,2.8
2022-09-24T00:12:45.802Z,2.8
2022-09-24T00:13:54.203Z,2.8
2022-09-24T00:15:02.851Z,2.7
2022-09-24T00:16:11.330Z,2.7
2022-09-24T00:17:19.713Z,2.7
2022-09-24T00:18:28.263Z,2.6
2022-09-24T00:19:36.721Z,2.6
2022-09-24T00:20:45.128Z,2.6
2022-09-24T00:21:53.758Z,2.5
2022-09-24T00:23:02.181Z,2.5
2022-09-24T00:24:10.644Z,2.5
2022-09-24T00:25:19.232Z,2.8
2022-09-24T00:26:27.622Z,2.8
2022-09-24T00:27:36.063Z,2.8
2022-09-24T00:28:44.661Z,2.8
2022-09-24T00:29:53.130Z,2.8
2022-09-24T00:31:01.551Z,2.8
2022-09-24T00:32:10.143Z,3.1
2022-09-24T00:33:18.585Z,3.1
2022-09-24T00:34:26.988Z,3.1
2022-09-24T00:35:35.676Z,3.2
2022-09-24T00:36:44.084Z,3.2
2022-09-24T00:37:52.512Z,3.2
2022-09-24T00:39:01.153Z,3.1
2022-09-24T00:40:09.613Z,3.1
2022-09-24T00:41:17.994Z,3.1
2022-09-24T00:42:26.644Z,2.7
2022-09-24T00:43:35.059Z,2.7
2022-09-24T00:44:43.436Z,2.7
2022-09-24T00:45:52.082Z,3.3
2022-09-24T00:47:00.636Z,3.3
2022-09-24T00:48:08.903Z,3.3
2022-09-24T00:49:17.572Z,3.3
2022-09-24T00:50:25.985Z,3.3
2022-09-24T00:51:34.357Z,3.3
2022-09-24T00:52:42.951Z,3.2
2022-09-24T00:53:51.389Z,3.2
2022-09-24T00:54:59.851Z,3.2
2022-09-24T00:56:09.367Z,3.4
2022-09-24T00:57:17.768Z,3.4
2022-09-24T00:58:26.179Z,3.4
2022-09-24T00:59:34.800Z,3.6
2022-09-24T01:00:43.298Z,3.6
2022-09-24T01:01:51.757Z,3.6
2022-09-24T01:03:00.276Z,3.2
2022-09-24T01:04:08.752Z,3.2
2022-09-24T01:05:17.095Z,3.2
2022-09-24T01:06:25.723Z,3.3
2022-09-24T01:07:34.166Z,3.3
2022-09-24T01:08:42.538Z,3.3
2022-09-24T01:09:51.170Z,3.2
2022-09-24T01:10:59.647Z,3.2
2022-09-24T01:12:07.992Z,3.2
2022-09-24T01:13:16.616Z,3.1
2022-09-24T01:14:25.072Z,3.1
2022-09-24T01:15:33.462Z,3.1
2022-09-24T01:16:42.101Z,3
2022-09-24T01:17:50.484Z,3
2022-09-24T01:18:58.958Z,3
2022-09-24T01:20:07.583Z,2.8
2022-09-24T01:21:15.987Z,2.8
2022-09-24T01:22:24.439Z,2.8
2022-09-24T01:23:33.054Z,2.7
2022-09-24T01:24:41.458Z,2.7
2022-09-24T01:25:49.904Z,2.7
2022-09-24T01:26:58.547Z,2.9
2022-09-24T01:28:06.932Z,2.9
2022-09-24T01:29:15.377Z,2.9
2022-09-24T01:30:23.956Z,2.8
2022-09-24T01:31:32.378Z,2.8
2022-09-24T01:32:40.788Z,2.8
2022-09-24T01:33:49.419Z,2.6
2022-09-24T01:34:57.823Z,2.6
2022-09-24T01:36:06.260Z,2.6
2022-09-24T01:37:14.863Z,2.8
2022-09-24T01:38:23.307Z,2.8
2022-09-24T01:39:31.709Z,2.8
2022-09-24T01:40:40.459Z,3
2022-09-24T01:41:48.805Z,3
2022-09-24T01:42:57.163Z,3
2022-09-24T01:44:05.767Z,3.2
2022-09-24T01:45:14.211Z,3.2
2022-09-24T01:46:22.680Z,3.2
2022-09-24T01:47:34.528Z,3
2022-09-24T01:48:39.750Z,3
2022-09-24T01:49:48.171Z,3
2022-09-24T01:50:56.782Z,3.1
2022-09-24T01:52:05.237Z,3.1
2022-09-24T01:53:13.625Z,3.1
2022-09-24T01:54:22.265Z,3.1
2022-09-24T01:55:30.626Z,3.1
2022-09-24T01:56:39.035Z,3.1
2022-09-24T01:57:47.681Z,3.1
2022-09-24T01:58:56.116Z,3.1
2022-09-24T02:00:04.485Z,3.1
2022-09-24T02:01:13.218Z,3.4
2022-09-24T02:02:21.603Z,3.4
2022-09-24T02:03:29.971Z,3.4
2022-09-24T02:04:38.628Z,3.5
2022-09-24T02:05:47.025Z,3.5
2022-09-24T02:06:55.461Z,3.5
2022-09-24T02:08:04.028Z,3.5
2022-09-24T02:09:12.466Z,3.5
2022-09-24T02:10:20.885Z,3.5
2022-09-24T02:11:29.562Z,3.2
2022-09-24T02:12:37.953Z,3.2
2022-09-24T02:13:46.386Z,3.2
2022-09-24T02:14:54.989Z,3.4
2022-09-24T02:16:03.505Z,3.4
2022-09-24T02:17:11.736Z,3.4
2022-09-24T02:18:20.388Z,3.7
2022-09-24T02:19:28.863Z,3.7
2022-09-24T02:20:37.253Z,3.7
2022-09-24T02:21:45.898Z,3.8
2022-09-24T02:22:54.325Z,3.8
2022-09-24T02:24:02.748Z,3.8
2022-09-24T02:25:11.400Z,3.5
2022-09-24T02:26:19.817Z,3.5
2022-09-24T02:27:28.210Z,3.5
2022-09-24T02:28:36.860Z,3.3
2022-09-24T02:29:45.255Z,3.3
2022-09-24T02:30:53.712Z,3.3
2022-09-24T02:32:02.368Z,3.8
2022-09-24T02:33:10.768Z,3.8
2022-09-24T02:34:19.111Z,3.8
2022-09-24T02:35:27.733Z,3.5
2022-09-24T02:36:36.147Z,3.5
2022-09-24T02:37:44.567Z,3.5
2022-09-24T02:38:53.177Z,4.7
2022-09-24T02:40:01.608Z,4.7
2022-09-24T02:41:10.071Z,4.7
2022-09-24T02:42:18.645Z,5.1
2022-09-24T02:43:27.166Z,5.1
2022-09-24T02:44:35.594Z,5.1
2022-09-24T02:45:44.141Z,4.9
2022-09-24T02:46:52.683Z,4.9
2022-09-24T02:48:00.953Z,4.9
2022-09-24T02:49:09.616Z,5.2
2022-09-24T02:50:18.048Z,5.2
2022-09-24T02:51:26.429Z,5.2
2022-09-24T02:52:35.038Z,5.4
2022-09-24T02:53:43.469Z,5.4
2022-09-24T02:54:51.897Z,5.4
2022-09-24T02:56:00.536Z,5.7
2022-09-24T02:57:08.952Z,5.7
2022-09-24T02:58:17.360Z,5.7
2022-09-24T02:59:25.980Z,5.4
2022-09-24T03:00:34.394Z,5.4
2022-09-24T03:01:42.928Z,5.4
2022-09-24T03:02:51.560Z,5.4
2022-09-24T03:03:59.871Z,5.4
2022-09-24T03:05:08.236Z,5.4
2022-09-24T03:06:16.850Z,5.2
2022-09-24T03:07:25.270Z,5.2
2022-09-24T03:08:33.703Z,5.2
2022-09-24T03:09:42.288Z,5.7
2022-09-24T03:10:50.679Z,5.7
2022-09-24T03:11:59.077Z,5.7
2022-09-24T03:13:07.693Z,5.7
2022-09-24T03:14:16.148Z,5.7
2022-09-24T03:15:24.530Z,5.7
2022-09-24T03:16:33.137Z,6.2
2022-09-24T03:17:41.508Z,6.2
2022-09-24T03:18:49.977Z,6.2
2022-09-24T03:19:58.733Z,6.1
2022-09-24T03:21:07.071Z,6.1
2022-09-24T03:22:15.438Z,6.1
2022-09-24T03:23:24.036Z,5.8
2022-09-24T03:24:32.506Z,5.8
2022-09-24T03:25:40.887Z,5.8
2022-09-24T03:26:49.534Z,5.8
2022-09-24T03:27:57.941Z,5.8
2022-09-24T03:29:06.349Z,5.8
2022-09-24T03:30:14.972Z,5.4
2022-09-24T03:31:23.458Z,5.4
2022-09-24T03:32:31.759Z,5.4
2022-09-24T03:33:40.428Z,6.2
2022-09-24T03:34:48.850Z,6.2
2022-09-24T03:35:57.314Z,6.2
2022-09-24T03:37:05.893Z,6.7
2022-09-24T03:38:14.295Z,6.7
2022-09-24T03:39:22.728Z,6.7
2022-09-24T03:40:31.406Z,7
2022-09-24T03:41:39.773Z,7
2022-09-24T03:42:48.240Z,7
2022-09-24T03:43:56.828Z,7
2022-09-24T03:45:05.257Z,7
2022-09-24T03:46:13.749Z,7
2022-09-24T03:47:22.304Z,7.4
2022-09-24T03:48:30.697Z,7.4
2022-09-24T03:49:39.127Z,7.4
2022-09-24T03:50:47.741Z,7.2
2022-09-24T03:51:56.180Z,7.2
2022-09-24T03:53:04.580Z,7.2
2022-09-24T03:54:13.232Z,7
2022-09-24T03:55:21.622Z,7
2022-09-24T03:56:29.998Z,7
2022-09-24T03:57:38.621Z,7.4
2022-09-24T03:58:47.079Z,7.4
2022-09-24T03:59:55.479Z,7.4
2022-09-24T04:01:04.095Z,7.2
2022-09-24T04:02:12.589Z,7.2
2022-09-24T04:03:20.997Z,7.2
2022-09-24T04:04:29.523Z,6.2
2022-09-24T04:05:37.947Z,6.2
2022-09-24T04:06:46.342Z,6.2
2022-09-24T04:07:55.003Z,6.5
2022-09-24T04:09:03.387Z,6.5
2022-09-24T04:10:11.785Z,6.5
2022-09-24T04:11:20.438Z,6.5
2022-09-24T04:12:28.821Z,6.5
2022-09-24T04:13:37.248Z,6.5
2022-09-24T04:14:45.820Z,6.1
2022-09-24T04:15:54.336Z,6.1
2022-09-24T04:17:02.690Z,6.1
2022-09-24T04:18:11.352Z,6
2022-09-24T04:19:19.729Z,6
2022-09-24T04:20:28.188Z,6
2022-09-24T04:21:36.767Z,5.9
2022-09-24T04:22:45.210Z,5.9
2022-09-24T04:23:53.703Z,5.9
2022-09-24T04:25:02.237Z,6.2
2022-09-24T04:26:10.631Z,6.2
2022-09-24T04:27:19.092Z,6.2
2022-09-24T04:28:27.677Z,6
2022-09-24T04:29:36.137Z,6
2022-09-24T04:30:44.525Z,6
2022-09-24T04:31:53.212Z,5.5
2022-09-24T04:33:01.580Z,5.5
2022-09-24T04:34:09.979Z,5.5
2022-09-24T04:35:18.602Z,6
2022-09-24T04:36:26.991Z,6
2022-09-24T04:37:35.438Z,6
2022-09-24T04:38:44.093Z,5.7
2022-09-24T04:39:52.497Z,5.7
2022-09-24T04:41:00.917Z,5.7
2022-09-24T04:42:09.513Z,5.9
2022-09-24T04:43:17.919Z,5.9
2022-09-24T04:44:26.311Z,5.9
2022-09-24T04:45:34.913Z,5.5
2022-09-24T04:46:43.379Z,5.5
2022-09-24T04:47:51.742Z,5.5
2022-09-24T04:49:00.537Z,5.6
2022-09-24T04:50:08.908Z,5.6
2022-09-24T04:51:17.316Z,5.6
2022-09-24T04:52:25.970Z,5.4
2022-09-24T04:53:34.364Z,5.4
2022-09-24T04:54:42.757Z,5.4
2022-09-24T04:55:51.409Z,5.5
2022-09-24T04:56:59.799Z,5.5
2022-09-24T04:58:08.904Z,5.5
2022-09-24T04:59:17.514Z,6.1
2022-09-24T05:00:25.917Z,6.1
2022-09-24T05:01:34.473Z,6.1
2022-09-24T05:02:43.035Z,5.4
2022-09-24T05:03:51.316Z,5.4
2022-09-24T05:04:59.773Z,5.4
2022-09-24T05:06:08.326Z,5.5
2022-09-24T05:07:16.784Z,5.5
2022-09-24T05:08:25.201Z,5.5
2022-09-24T05:09:33.789Z,5
2022-09-24T05:10:42.248Z,5
2022-09-24T05:11:50.661Z,5
2022-09-24T05:12:59.281Z,5.5
2022-09-24T05:14:07.713Z,5.5
2022-09-24T05:15:16.085Z,5.5
2022-09-24T05:16:24.738Z,5.5
2022-09-24T05:17:33.109Z,5.5
2022-09-24T05:18:41.480Z,5.5
2022-09-24T05:19:50.122Z,6.1
2022-09-24T05:20:58.534Z,6.1
2022-09-24T05:22:06.935Z,6.1
2022-09-24T05:23:15.571Z,6.3
2022-09-24T05:24:23.948Z,6.3
2022-09-24T05:25:32.382Z,6.3
2022-09-24T05:26:40.977Z,6.5
2022-09-24T05:27:49.436Z,6.5
2022-09-24T05:28:57.782Z,6.5
2022-09-24T05:30:06.403Z,6.3
2022-09-24T05:31:14.970Z,6.3
2022-09-24T05:32:23.273Z,6.3
2022-09-24T05:33:31.866Z,6.7
2022-09-24T05:34:40.281Z,6.7
2022-09-24T05:35:48.677Z,6.7
2022-09-24T05:36:57.304Z,6.6
2022-09-24T05:38:05.736Z,6.6
2022-09-24T05:39:14.117Z,6.6
2022-09-24T05:40:22.801Z,6.2
2022-09-24T05:41:31.195Z,6.2
2022-09-24T05:42:39.544Z,6.2
2022-09-24T05:43:48.206Z,6.1
2022-09-24T05:44:56.569Z,6.1
2022-09-24T05:46:05.035Z,6.1
2022-09-24T05:47:13.579Z,6.1
2022-09-24T05:48:22.001Z,6.1
2022-09-24T05:49:30.437Z,6.1
2022-09-24T05:50:39.015Z,6.1
2022-09-24T05:51:47.442Z,6.1
2022-09-24T05:52:55.800Z,6.1
2022-09-24T05:54:04.432Z,6.2
2022-09-24T05:55:12.835Z,6.2
2022-09-24T05:56:21.236Z,6.2
2022-09-24T05:57:29.855Z,5.8
2022-09-24T05:58:38.257Z,5.8
2022-09-24T05:59:46.667Z,5.8
2022-09-24T06:00:55.285Z,6.2
2022-09-24T06:02:03.738Z,6.2
2022-09-24T06:03:12.205Z,6.2
2022-09-24T06:04:20.729Z,23.799999
2022-09-24T06:05:29.120Z,23.799999
2022-09-24T06:06:37.542Z,23.799999
2022-09-24T06:07:46.154Z,130
2022-09-24T06:08:54.545Z,130
2022-09-24T06:10:02.993Z,130
2022-09-24T06:11:11.571Z,135.6
2022-09-24T06:12:19.994Z,135.6
2022-09-24T06:13:28.449Z,135.6
2022-09-24T06:14:36.985Z,79.400002
2022-09-24T06:15:45.505Z,79.400002
2022-09-24T06:16:53.861Z,79.400002
2022-09-24T06:18:02.523Z,71.800003
2022-09-24T06:19:10.906Z,71.800003
2022-09-24T06:20:19.277Z,71.800003
2022-09-24T06:21:27.915Z,59.599998
2022-09-24T06:22:36.301Z,59.599998
2022-09-24T06:23:44.765Z,59.599998
2022-09-24T06:24:53.379Z,39.5
2022-09-24T06:26:01.749Z,39.5
2022-09-24T06:27:10.153Z,39.5
2022-09-24T06:28:18.804Z,27
2022-09-24T06:29:27.199Z,27
2022-09-24T06:30:35.636Z,27
2022-09-24T06:31:44.367Z,23.6
2022-09-24T06:32:52.607Z,23.6
2022-09-24T06:34:00.991Z,23.6
2022-09-24T06:35:09.620Z,18.799999
2022-09-24T06:36:18.087Z,18.799999
2022-09-24T06:37:26.473Z,18.799999
2022-09-24T06:38:35.094Z,15.6
2022-09-24T06:39:43.501Z,15.6
2022-09-24T06:40:51.949Z,15.6
2022-09-24T06:42:00.517Z,16.200001
2022-09-24T06:43:08.920Z,16.200001
2022-09-24T06:44:17.335Z,16.200001
2022-09-24T06:45:25.914Z,11.2
2022-09-24T06:46:34.367Z,11.2
2022-09-24T06:47:42.792Z,11.2
2022-09-24T06:48:51.318Z,6.6
2022-09-24T06:49:59.712Z,6.6
2022-09-24T06:51:08.103Z,6.6
2022-09-24T06:52:16.706Z,5.3
2022-09-24T06:53:25.098Z,5.3
2022-09-24T06:54:33.547Z,5.3
2022-09-24T06:55:42.225Z,5.1
2022-09-24T06:56:50.606Z,5.1
2022-09-24T06:57:59.031Z,5.1
2022-09-24T06:59:07.679Z,5.4
2022-09-24T07:00:16.040Z,5.4
2022-09-24T07:01:24.521Z,5.4
2022-09-24T07:02:33.129Z,5.9
2022-09-24T07:03:41.492Z,5.9
2022-09-24T07:04:49.884Z,5.9
2022-09-24T07:05:58.515Z,5.7
2022-09-24T07:07:06.908Z,5.7
2022-09-24T07:08:15.312Z,5.7
2022-09-24T07:09:23.936Z,5.5
2022-09-24T07:10:32.339Z,5.5
2022-09-24T07:11:40.734Z,5.5
2022-09-24T07:12:49.353Z,5.4
2022-09-24T07:13:57.746Z,5.4
2022-09-24T07:15:06.123Z,5.4
2022-09-24T07:16:14.809Z,5.5
2022-09-24T07:17:23.157Z,5.5
2022-09-24T07:18:31.544Z,5.5
2022-09-24T07:19:40.155Z,5.8
2022-09-24T07:20:48.557Z,5.8
2022-09-24T07:21:56.941Z,5.8
2022-09-24T07:23:05.554Z,5.4
2022-09-24T07:24:13.989Z,5.4
2022-09-24T07:25:22.380Z,5.4
2022-09-24T07:26:30.980Z,5.6
2022-09-24T07:27:39.363Z,5.6
2022-09-24T07:28:47.782Z,5.6
2022-09-24T07:29:56.375Z,7.1
2022-09-24T07:31:04.813Z,7.1
2022-09-24T07:32:13.194Z,7.1
2022-09-24T07:33:21.822Z,7.2
2022-09-24T07:34:30.202Z,7.2
2022-09-24T07:35:38.650Z,7.2
2022-09-24T07:36:47.211Z,8.3
2022-09-24T07:37:55.669Z,8.3
2022-09-24T07:39:04.067Z,8.3
2022-09-24T07:40:12.737Z,7.6
2022-09-24T07:41:21.095Z,7.6
2022-09-24T07:42:29.510Z,7.6
2022-09-24T07:43:38.165Z,6.7
2022-09-24T07:44:46.547Z,6.7
2022-09-24T07:45:54.970Z,6.7
2022-09-24T07:47:03.578Z,7.2
2022-09-24T07:48:11.965Z,7.2
2022-09-24T07:49:20.384Z,7.2
2022-09-24T07:50:28.961Z,6
2022-09-24T07:51:37.385Z,6
2022-09-24T07:52:45.775Z,6
2022-09-24T07:53:55.098Z,6.2
2022-09-24T07:55:03.518Z,6.2
2022-09-24T07:56:11.915Z,6.2
2022-09-24T07:57:20.526Z,6.5
2022-09-24T07:58:28.942Z,6.5
2022-09-24T07:59:37.354Z,6.5
2022-09-24T08:00:45.955Z,6.8
2022-09-24T08:01:54.483Z,6.8
2022-09-24T08:03:02.820Z,6.8
2022-09-24T08:04:11.663Z,7.1
2022-09-24T08:05:19.815Z,7.1
2022-09-24T08:06:28.202Z,7.1
2022-09-24T08:07:36.955Z,6.9
2022-09-24T08:08:45.226Z,6.9
2022-09-24T08:09:53.668Z,6.9
2022-09-24T08:11:02.285Z,6.8
2022-09-24T08:12:10.684Z,6.8
2022-09-24T08:13:21.659Z,6.8
2022-09-24T08:14:27.765Z,6.8
2022-09-24T08:15:36.224Z,6.8
2022-09-24T08:16:44.570Z,6.8
2022-09-24T08:17:53.203Z,7.2
2022-09-24T08:19:01.593Z,7.2
2022-09-24T08:20:10.054Z,7.2
2022-09-24T08:21:18.686Z,7.7
2022-09-24T08:22:27.077Z,7.7
2022-09-24T08:23:35.641Z,7.7
2022-09-24T08:24:44.192Z,7.3
2022-09-24T08:25:52.563Z,7.3
2022-09-24T08:27:01.087Z,7.3
2022-09-24T08:28:09.613Z,7.5
2022-09-24T08:29:18.013Z,7.5
2022-09-24T08:30:26.467Z,7.5
2022-09-24T08:31:35.133Z,7.2
2022-09-24T08:32:43.477Z,7.2
2022-09-24T08:33:51.838Z,7.2
2022-09-24T08:35:00.482Z,7.3
2022-09-24T08:36:08.858Z,7.3
2022-09-24T08:37:17.293Z,7.3
2022-09-24T08:38:25.857Z,6.9
2022-09-24T08:39:34.283Z,6.9
2022-09-24T08:40:42.767Z,6.9
2022-09-24T08:41:51.287Z,6.9
2022-09-24T08:43:02.103Z,6.9
2022-09-24T08:44:08.180Z,6.9
2022-09-24T08:45:16.755Z,7.3
2022-09-24T08:46:25.199Z,7.3
2022-09-24T08:47:33.584Z,7.3
2022-09-24T08:48:42.170Z,6.9
2022-09-24T08:49:50.595Z,6.9
2022-09-24T08:50:59.017Z,6.9
2022-09-24T08:52:07.618Z,8
2022-09-24T08:53:16.028Z,8
2022-09-24T08:54:24.459Z,8
2022-09-24T08:55:33.190Z,9.3
2022-09-24T08:56:41.506Z,9.3
2022-09-24T08:57:49.881Z,9.3
2022-09-24T08:58:58.499Z,8.7
2022-09-24T09:00:06.931Z,8.7
2022-09-24T09:01:15.399Z,8.7
2022-09-24T09:02:24.006Z,7.8
2022-09-24T09:03:32.321Z,7.8
2022-09-24T09:04:40.728Z,7.8
2022-09-24T09:05:49.764Z,8.2
2022-09-24T09:06:57.761Z,8.2
2022-09-24T09:08:16.741Z,8.2
2022-09-24T09:09:14.745Z,7.5
2022-09-24T09:10:23.175Z,7.5
2022-09-24T09:11:31.634Z,7.5
2022-09-24T09:12:40.233Z,7.7
2022-09-24T09:13:48.617Z,7.7
2022-09-24T09:14:57.080Z,7.7
2022-09-24T09:16:05.771Z,7.9
2022-09-24T09:17:14.081Z,7.9
2022-09-24T09:18:22.481Z,7.9
2022-09-24T09:19:31.124Z,6.9
2022-09-24T09:20:39.488Z,6.9
2022-09-24T09:21:47.934Z,6.9
2022-09-24T09:22:56.579Z,6.4
2022-09-24T09:24:04.945Z,6.4
2022-09-24T09:25:13.383Z,6.4
2022-09-24T09:26:22.005Z,7.3
2022-09-24T09:27:30.443Z,7.3
2022-09-24T09:28:38.822Z,7.3
2022-09-24T09:29:47.417Z,6.4
2022-09-24T09:30:55.913Z,6.4
2022-09-24T09:32:04.267Z,6.4
2022-09-24T09:33:12.848Z,6.8
2022-09-24T09:34:21.291Z,6.8
2022-09-24T09:35:29.714Z,6.8
2022-09-24T09:36:38.293Z,6.6
2022-09-24T09:37:46.691Z,6.6
2022-09-24T09:38:55.092Z,6.6
2022-09-24T09:40:03.710Z,6.8
2022-09-24T09:41:12.107Z,6.8
2022-09-24T09:42:20.510Z,6.8
2022-09-24T09:43:29.203Z,6.4
2022-09-24T09:44:37.495Z,6.4
2022-09-24T09:45:45.875Z,6.4
2022-09-24T09:46:54.593Z,7.5
2022-09-24T09:48:02.943Z,7.5
2022-09-24T09:49:11.299Z,7.5
2022-09-24T09:50:19.927Z,5.8
2022-09-24T09:51:28.360Z,5.8
2022-09-24T09:52:36.760Z,5.8
2022-09-24T09:53:45.411Z,5.2
2022-09-24T09:54:53.819Z,5.2
2022-09-24T09:56:02.220Z,5.2
2022-09-24T09:57:10.839Z,5.5
2022-09-24T09:58:19.220Z,5.5
2022-09-24T09:59:29.785Z,5.5
2022-09-24T10:00:36.369Z,4.2
2022-09-24T10:01:44.833Z,4.2
2022-09-24T10:02:53.301Z,4.2
2022-09-24T10:04:01.854Z,3.6
2022-09-24T10:05:13.284Z,3.6
2022-09-24T10:06:18.631Z,3.6
2022-09-24T10:07:27.261Z,3.7
2022-09-24T10:08:35.698Z,3.7
2022-09-24T10:09:44.125Z,3.7
2022-09-24T10:10:52.754Z,3.5
2022-09-24T10:12:01.146Z,3.5
2022-09-24T10:13:09.579Z,3.5
2022-09-24T10:14:18.208Z,3.1
2022-09-24T10:15:26.711Z,3.1
2022-09-24T10:16:35.087Z,3.1
2022-09-24T10:17:43.624Z,3.4
2022-09-24T10:18:52.056Z,3.4
2022-09-24T10:20:00.466Z,3.4
2022-09-24T10:21:09.059Z,3.2
2022-09-24T10:22:17.480Z,3.2
2022-09-24T10:23:25.861Z,3.2
2022-09-24T10:24:34.500Z,3.4
2022-09-24T10:25:42.898Z,3.4
2022-09-24T10:26:51.316Z,3.4
2022-09-24T10:27:59.923Z,3.4
2022-09-24T10:29:08.356Z,3.4
2022-09-24T10:30:16.732Z,3.4
2022-09-24T10:31:25.441Z,3
2022-09-24T10:32:33.764Z,3
2022-09-24T10:33:42.134Z,3
2022-09-24T10:34:50.801Z,3.3
2022-09-24T10:35:59.191Z,3.3
2022-09-24T10:37:10.972Z,3.3
2022-09-24T10:38:16.224Z,3
2022-09-24T10:39:24.624Z,3
2022-09-24T10:40:33.080Z,3
2022-09-24T10:41:41.650Z,3.1
2022-09-24T10:42:50.097Z,3.1
2022-09-24T10:43:58.703Z,3.1
2022-09-24T10:45:07.339Z,3.3
2022-09-24T10:46:15.834Z,3.3
2022-09-24T10:47:24.177Z,3.3
2022-09-24T10:48:32.768Z,3.3
2022-09-24T10:49:41.151Z,3.3
2022-09-24T10:50:49.552Z,3.3
2022-09-24T10:51:58.252Z,2.9
2022-09-24T10:53:06.650Z,2.9
2022-09-24T10:54:15.054Z,2.9
2022-09-24T10:55:23.651Z,3.2
2022-09-24T10:56:32.062Z,3.2
2022-09-24T10:57:40.469Z,3.2
2022-09-24T10:58:49.074Z,2.9
2022-09-24T10:59:57.571Z,2.9
2022-09-24T11:01:05.919Z,2.9
2022-09-24T11:02:14.598Z,3.1
2022-09-24T11:03:23.026Z,3.1
2022-09-24T11:04:35.147Z,3.1
2022-09-24T11:05:40.055Z,2.9
2022-09-24T11:06:48.487Z,2.9
2022-09-24T11:07:56.897Z,2.9
2022-09-24T11:09:05.554Z,3
2022-09-24T11:10:14.028Z,3
2022-09-24T11:11:22.333Z,3
2022-09-24T11:12:30.921Z,2.6
2022-09-24T11:13:39.397Z,2.6
2022-09-24T11:14:47.739Z,2.6
2022-09-24T11:15:56.405Z,2.5
2022-09-24T11:17:04.767Z,2.5
2022-09-24T11:18:13.198Z,2.5
2022-09-24T11:19:21.923Z,2.9
2022-09-24T11:20:30.208Z,2.9
2022-09-24T11:21:38.615Z,2.9
2022-09-24T11:22:47.254Z,3
2022-09-24T11:23:55.694Z,3
2022-09-24T11:25:04.105Z,3
2022-09-24T11:26:12.696Z,2.5
2022-09-24T11:27:21.097Z,2.5
2022-09-24T11:28:29.515Z,2.5
2022-09-24T11:29:38.158Z,2.6
2022-09-24T11:30:46.561Z,2.6
2022-09-24T11:31:54.958Z,2.6
2022-09-24T11:33:03.564Z,2.3
2022-09-24T11:34:12.007Z,2.3
2022-09-24T11:35:20.480Z,2.3
2022-09-24T11:36:28.970Z,2.5
2022-09-24T11:37:37.418Z,2.5
2022-09-24T11:38:45.808Z,2.5
2022-09-24T11:39:54.419Z,2.8
2022-09-24T11:41:02.899Z,2.8
2022-09-24T11:42:11.257Z,2.8
2022-09-24T11:43:19.877Z,2.9
2022-09-24T11:44:28.293Z,2.9
2022-09-24T11:45:36.712Z,2.9
2022-09-24T11:46:45.365Z,2.4
2022-09-24T11:47:53.734Z,2.4
2022-09-24T11:49:02.121Z,2.4
2022-09-24T11:50:10.806Z,2.4
2022-09-24T11:51:19.146Z,2.4
2022-09-24T11:52:27.518Z,2.4
2022-09-24T11:53:36.180Z,2.8
2022-09-24T11:54:44.592Z,2.8
2022-09-24T11:55:53.033Z,2.8
2022-09-24T11:57:01.637Z,2.8
2022-09-24T11:58:10.071Z,2.8
2022-09-24T11:59:18.495Z,2.8
2022-09-24T12:00:27.117Z,2.6
2022-09-24T12:01:35.548Z,2.6
2022-09-24T12:02:44.011Z,2.6
2022-09-24T12:03:52.667Z,2.5
2022-09-24T12:05:01.033Z,2.5
2022-09-24T12:06:09.426Z,2.5
2022-09-24T12:07:18.126Z,3.4
2022-09-24T12:08:26.538Z,3.4
2022-09-24T12:09:34.929Z,3.4
2022-09-24T12:10:43.522Z,2.7
2022-09-24T12:11:51.966Z,2.7
2022-09-24T12:13:00.433Z,2.7
2022-09-24T12:14:09.072Z,2.8
2022-09-24T12:15:17.437Z,2.8
2022-09-24T12:16:25.945Z,2.8
2022-09-24T12:17:34.460Z,2.7
2022-09-24T12:18:42.927Z,2.7
2022-09-24T12:19:51.281Z,2.7
2022-09-24T12:20:59.875Z,2.8
2022-09-24T12:22:08.280Z,2.8
2022-09-24T12:23:16.712Z,2.8
2022-09-24T12:24:25.363Z,3
2022-09-24T12:25:33.725Z,3
2022-09-24T12:26:42.135Z,3
2022-09-24T12:27:50.775Z,3.5
2022-09-24T12:28:59.200Z,3.5
2022-09-24T12:30:07.586Z,3.5
2022-09-24T12:31:16.273Z,2.7
2022-09-24T12:32:24.635Z,2.7
2022-09-24T12:33:33.056Z,2.7
2022-09-24T12:34:41.684Z,2.5
2022-09-24T12:35:50.099Z,2.5
2022-09-24T12:36:58.494Z,2.5
2022-09-24T12:38:07.141Z,2.6
2022-09-24T12:39:15.539Z,2.6
2022-09-24T12:40:23.979Z,2.6
2022-09-24T12:41:32.554Z,2.6
2022-09-24T12:42:41.552Z,2.6
2022-09-24T12:43:49.960Z,2.6
2022-09-24T12:44:58.597Z,2.8
2022-09-24T12:46:07.091Z,2.8
2022-09-24T12:47:15.420Z,2.8
2022-09-24T12:48:24.078Z,2.5
2022-09-24T12:49:32.472Z,2.5
2022-09-24T12:50:40.868Z,2.5
2022-09-24T12:51:49.512Z,2.7
2022-09-24T12:52:57.950Z,2.7
2022-09-24T12:54:06.344Z,2.7
2022-09-24T12:55:14.970Z,2.5
2022-09-24T12:56:23.355Z,2.5
2022-09-24T12:57:31.841Z,2.5
2022-09-24T12:58:40.440Z,2.5
2022-09-24T12:59:48.848Z,2.5
2022-09-24T13:00:57.274Z,2.5
2022-09-24T13:02:06.015Z,2.4
2022-09-24T13:03:14.440Z,2.4
2022-09-24T13:04:22.887Z,2.4
2022-09-24T13:05:31.869Z,2.4
2022-09-24T13:06:40.252Z,2.4
2022-09-24T13:07:48.704Z,2.4
2022-09-24T13:08:57.308Z,2.3
2022-09-24T13:10:05.703Z,2.3
2022-09-24T13:11:14.245Z,2.3
2022-09-24T13:12:22.734Z,2.4
2022-09-24T13:13:31.153Z,2.4
2022-09-24T13:14:39.557Z,2.4
2022-09-24T13:15:48.269Z,2.6
2022-09-24T13:16:56.645Z,2.6
2022-09-24T13:18:05.011Z,2.6
2022-09-24T13:19:13.696Z,2.3
2022-09-24T13:20:22.106Z,2.3
2022-09-24T13:21:30.476Z,2.3
2022-09-24T13:22:39.181Z,2.5
2022-09-24T13:23:47.541Z,2.5
2022-09-24T13:24:56.004Z,2.5
2022-09-24T13:26:04.636Z,2.6
2022-09-24T13:27:13.139Z,2.6
2022-09-24T13:28:21.523Z,2.6
2022-09-24T13:29:30.179Z,2.3
2022-09-24T13:30:38.627Z,2.3
2022-09-24T13:31:47.047Z,2.3
2022-09-24T13:32:55.652Z,2.6
2022-09-24T13:34:04.050Z,2.6
2022-09-24T13:35:12.468Z,2.6
2022-09-24T13:36:21.102Z,2.3
2022-09-24T13:37:29.550Z,2.3
2022-09-24T13:38:37.941Z,2.3
2022-09-24T13:39:46.566Z,62.200001
2022-09-24T13:40:55.026Z,62.200001
2022-09-24T13:42:03.421Z,62.200001
2022-09-24T13:43:12.003Z,15.5
2022-09-24T13:44:20.393Z,15.5
2022-09-24T13:45:28.840Z,15.5
2022-09-24T13:46:37.496Z,4.3
2022-09-24T13:47:45.889Z,4.3
2022-09-24T13:48:54.320Z,4.3
2022-09-24T13:50:02.937Z,4.2
2022-09-24T13:51:11.329Z,4.2
2022-09-24T13:52:19.728Z,4.2
2022-09-24T13:53:28.390Z,5.9
2022-09-24T13:54:36.859Z,5.9
2022-09-24T13:55:45.273Z,5.9
2022-09-24T13:56:53.912Z,2.7
2022-09-24T13:58:02.276Z,2.7
2022-09-24T13:59:10.719Z,2.7
2022-09-24T14:00:19.280Z,2.6
2022-09-24T14:01:27.765Z,2.6
2022-09-24T14:02:36.159Z,2.6
2022-09-24T14:03:44.708Z,3.2
2022-09-24T14:04:53.100Z,3.2
2022-09-24T14:06:01.494Z,3.2
2022-09-24T14:07:10.112Z,2.9
2022-09-24T14:08:18.507Z,2.9
2022-09-24T14:09:26.904Z,2.9
2022-09-24T14:10:35.519Z,2.5
2022-09-24T14:11:43.950Z,2.5
2022-09-24T14:12:52.374Z,2.5
2022-09-24T14:14:01.065Z,2.2
2022-09-24T14:15:09.459Z,2.2
2022-09-24T14:16:17.872Z,2.2
2022-09-24T14:17:26.455Z,2.7
2022-09-24T14:18:34.857Z,2.7
2022-09-24T14:19:43.251Z,2.7
2022-09-24T14:20:51.846Z,3.6
2022-09-24T14:22:00.256Z,3.6
2022-09-24T14:23:08.654Z,3.6
2022-09-24T14:24:17.341Z,3.1
2022-09-24T14:25:25.739Z,3.1
2022-09-24T14:26:34.118Z,3.1
2022-09-24T14:27:42.752Z,3.6
2022-09-24T14:28:51.206Z,3.6
2022-09-24T14:29:59.602Z,3.6
2022-09-24T15:03:46.363Z,0
2022-09-24T15:04:54.776Z,0
2022-09-24T15:06:03.058Z,0
2022-09-24T15:07:11.704Z,2.3
2022-09-24T15:08:20.153Z,2.3
2022-09-24T15:09:28.476Z,2.3
2022-09-24T15:10:37.066Z,2.2
2022-09-24T15:11:45.434Z,2.2
2022-09-24T15:12:53.790Z,2.2
2022-09-24T15:14:02.377Z,5
2022-09-24T15:15:10.720Z,5
2022-09-24T15:16:19.091Z,5
2022-09-24T15:17:27.645Z,2.4
2022-09-24T15:18:35.999Z,2.4
2022-09-24T15:19:44.393Z,2.4
2022-09-24T15:20:52.925Z,2.4
2022-09-24T15:22:01.307Z,2.4
2022-09-24T15:23:09.673Z,2.4
2022-09-24T15:24:18.216Z,2.3
2022-09-24T15:25:26.616Z,2.3
2022-09-24T15:26:34.998Z,2.3
2022-09-24T15:27:43.590Z,2.6
2022-09-24T15:28:51.935Z,2.6
2022-09-24T15:30:00.352Z,2.6
2022-09-24T15:31:08.949Z,3.2
2022-09-24T15:32:17.303Z,3.2
2022-09-24T15:33:25.667Z,3.2
2022-09-24T15:34:34.278Z,2.5
2022-09-24T15:35:42.696Z,2.5
2022-09-24T15:36:51.047Z,2.5
2022-09-24T15:37:59.607Z,4.6
2022-09-24T15:39:08.052Z,4.6
2022-09-24T15:40:16.469Z,4.6
2022-09-24T15:41:25.104Z,3.6
2022-09-24T15:42:33.484Z,3.6
2022-09-24T15:43:41.905Z,3.6
2022-09-24T15:44:50.511Z,4.4
2022-09-24T15:45:58.999Z,4.4
2022-09-24T15:47:07.358Z,4.4
2022-09-24T15:48:15.992Z,3.2
2022-09-24T15:49:24.383Z,3.2
2022-09-24T15:50:32.795Z,3.2
2022-09-24T15:51:41.504Z,3.8
2022-09-24T15:52:49.856Z,3.8
2022-09-24T15:53:58.261Z,3.8
2022-09-24T15:55:06.910Z,4.8
2022-09-24T15:56:15.383Z,4.8
2022-09-24T15:57:23.746Z,4.8
2022-09-24T15:58:32.354Z,5.4
2022-09-24T15:59:40.798Z,5.4
2022-09-24T16:00:49.214Z,5.4
2022-09-24T16:01:57.905Z,5.9
2022-09-24T16:03:06.327Z,5.9
2022-09-24T16:04:14.636Z,5.9
2022-09-24T16:05:23.233Z,6
2022-09-24T16:06:31.656Z,6
2022-09-24T16:07:40.247Z,6
2022-09-24T16:08:48.719Z,5.9
2022-09-24T16:09:57.125Z,5.9
2022-09-24T16:11:08.830Z,5.9
2022-09-24T16:12:14.153Z,5.8
2022-09-24T16:13:22.595Z,5.8
2022-09-24T16:14:30.974Z,5.8